sensor_id;sensor_type;location;lat;lon;timestamp;temperature;humidity
19880;DHT22;10102;50.828;4.416;2023-06-14T00:00:40;23.20;80.50
19880;DHT22;10102;50.828;4.416;2023-06-14T00:03:10;23.30;91.80
19880;DHT22;10102;50.828;4.416;2023-06-14T00:05:37;23.50;92.20
19880;DHT22;10102;50.828;4.416;2023-06-14T00:08:07;23.30;92.10
19880;DHT22;10102;50.828;4.416;2023-06-14T00:10:34;23.50;85.80
19880;DHT22;10102;50.828;4.416;2023-06-14T00:13:03;23.20;91.90
19880;DHT22;10102;50.828;4.416;2023-06-14T00:15:31;23.20;78.40
19880;DHT22;10102;50.828;4.416;2023-06-14T00:17:57;23.20;91.70
19880;DHT22;10102;50.828;4.416;2023-06-14T00:20:27;23.20;77.70
19880;DHT22;10102;50.828;4.416;2023-06-14T00:22:53;23.20;91.80
19880;DHT22;10102;50.828;4.416;2023-06-14T00:25:22;23.10;91.80
19880;DHT22;10102;50.828;4.416;2023-06-14T00:27:48;23.20;92.00
19880;DHT22;10102;50.828;4.416;2023-06-14T00:30:14;23.10;92.10
19880;DHT22;10102;50.828;4.416;2023-06-14T00:32:39;22.90;92.30
19880;DHT22;10102;50.828;4.416;2023-06-14T00:35:05;22.80;90.40
19880;DHT22;10102;50.828;4.416;2023-06-14T00:37:33;23.10;92.80
19880;DHT22;10102;50.828;4.416;2023-06-14T00:39:58;22.80;93.00
19880;DHT22;10102;50.828;4.416;2023-06-14T00:42:28;22.60;94.40
19880;DHT22;10102;50.828;4.416;2023-06-14T00:44:54;22.90;93.80
19880;DHT22;10102;50.828;4.416;2023-06-14T00:47:20;22.70;92.90
19880;DHT22;10102;50.828;4.416;2023-06-14T00:49:47;22.70;93.10
19880;DHT22;10102;50.828;4.416;2023-06-14T00:52:16;22.60;93.20
19880;DHT22;10102;50.828;4.416;2023-06-14T00:54:43;22.50;93.10
19880;DHT22;10102;50.828;4.416;2023-06-14T00:57:10;22.30;93.20
19880;DHT22;10102;50.828;4.416;2023-06-14T00:59:44;22.50;93.50
19880;DHT22;10102;50.828;4.416;2023-06-14T01:02:10;22.50;93.40
19880;DHT22;10102;50.828;4.416;2023-06-14T01:04:37;22.30;93.60
19880;DHT22;10102;50.828;4.416;2023-06-14T01:07:59;22.40;93.70
19880;DHT22;10102;50.828;4.416;2023-06-14T01:10:26;22.40;93.90
19880;DHT22;10102;50.828;4.416;2023-06-14T01:13:15;22.10;82.00
19880;DHT22;10102;50.828;4.416;2023-06-14T01:15:44;22.40;94.50
19880;DHT22;10102;50.828;4.416;2023-06-14T01:18:11;22.10;93.90
19880;DHT22;10102;50.828;4.416;2023-06-14T01:20:44;22.20;83.10
19880;DHT22;10102;50.828;4.416;2023-06-14T01:23:11;22.20;82.70
19880;DHT22;10102;50.828;4.416;2023-06-14T01:25:40;22.20;94.40
19880;DHT22;10102;50.828;4.416;2023-06-14T01:28:10;22.10;82.90
19880;DHT22;10102;50.828;4.416;2023-06-14T01:30:39;22.10;94.80
19880;DHT22;10102;50.828;4.416;2023-06-14T01:33:08;22.10;95.10
19880;DHT22;10102;50.828;4.416;2023-06-14T01:35:35;22.10;84.20
19880;DHT22;10102;50.828;4.416;2023-06-14T01:38:02;21.80;95.00
19880;DHT22;10102;50.828;4.416;2023-06-14T01:40:29;21.80;95.80
19880;DHT22;10102;50.828;4.416;2023-06-14T01:42:57;22.00;94.50
19880;DHT22;10102;50.828;4.416;2023-06-14T01:45:23;21.90;94.60
19880;DHT22;10102;50.828;4.416;2023-06-14T01:47:49;22.00;94.30
19880;DHT22;10102;50.828;4.416;2023-06-14T01:52:42;22.10;94.10
19880;DHT22;10102;50.828;4.416;2023-06-14T01:55:08;21.90;94.10
19880;DHT22;10102;50.828;4.416;2023-06-14T01:57:34;21.80;93.80
19880;DHT22;10102;50.828;4.416;2023-06-14T02:00:01;21.80;82.30
19880;DHT22;10102;50.828;4.416;2023-06-14T02:02:29;22.00;94.40
19880;DHT22;10102;50.828;4.416;2023-06-14T02:04:55;21.80;94.50
19880;DHT22;10102;50.828;4.416;2023-06-14T02:07:23;21.90;94.70
19880;DHT22;10102;50.828;4.416;2023-06-14T02:09:48;21.50;94.60
19880;DHT22;10102;50.828;4.416;2023-06-14T02:12:14;21.80;94.60
19880;DHT22;10102;50.828;4.416;2023-06-14T02:14:40;21.60;87.60
19880;DHT22;10102;50.828;4.416;2023-06-14T02:19:32;21.50;83.70
19880;DHT22;10102;50.828;4.416;2023-06-14T02:21:58;21.40;94.80
19880;DHT22;10102;50.828;4.416;2023-06-14T02:24:23;21.40;95.00
19880;DHT22;10102;50.828;4.416;2023-06-14T02:29:15;21.40;94.90
19880;DHT22;10102;50.828;4.416;2023-06-14T02:31:41;21.40;87.70
19880;DHT22;10102;50.828;4.416;2023-06-14T02:36:36;21.30;95.80
19880;DHT22;10102;50.828;4.416;2023-06-14T02:39:10;21.20;95.50
19880;DHT22;10102;50.828;4.416;2023-06-14T02:41:36;21.40;95.60
19880;DHT22;10102;50.828;4.416;2023-06-14T02:44:02;21.50;95.80
19880;DHT22;10102;50.828;4.416;2023-06-14T02:46:28;21.50;94.30
19880;DHT22;10102;50.828;4.416;2023-06-14T02:48:53;21.40;91.60
19880;DHT22;10102;50.828;4.416;2023-06-14T02:53:45;21.20;95.80
19880;DHT22;10102;50.828;4.416;2023-06-14T02:56:11;21.30;96.10
19880;DHT22;10102;50.828;4.416;2023-06-14T03:01:04;21.20;96.40
19880;DHT22;10102;50.828;4.416;2023-06-14T03:03:33;21.30;96.50
19880;DHT22;10102;50.828;4.416;2023-06-14T03:05:58;21.20;96.20
19880;DHT22;10102;50.828;4.416;2023-06-14T03:08:29;21.50;85.90
19880;DHT22;10102;50.828;4.416;2023-06-14T03:10:55;20.90;96.40
19880;DHT22;10102;50.828;4.416;2023-06-14T03:13:23;21.00;91.60
19880;DHT22;10102;50.828;4.416;2023-06-14T03:15:49;21.00;95.70
19880;DHT22;10102;50.828;4.416;2023-06-14T03:18:17;20.70;96.00
19880;DHT22;10102;50.828;4.416;2023-06-14T03:20:43;20.90;95.20
19880;DHT22;10102;50.828;4.416;2023-06-14T03:23:11;20.90;86.60
19880;DHT22;10102;50.828;4.416;2023-06-14T03:28:05;20.60;96.50
19880;DHT22;10102;50.828;4.416;2023-06-14T03:30:31;20.70;96.70
19880;DHT22;10102;50.828;4.416;2023-06-14T03:32:57;20.60;95.00
19880;DHT22;10102;50.828;4.416;2023-06-14T03:35:26;20.70;96.70
19880;DHT22;10102;50.828;4.416;2023-06-14T03:37:52;20.70;96.60
19880;DHT22;10102;50.828;4.416;2023-06-14T03:40:19;20.90;96.90
19880;DHT22;10102;50.828;4.416;2023-06-14T03:42:45;20.60;88.70
19880;DHT22;10102;50.828;4.416;2023-06-14T03:45:11;20.60;92.70
19880;DHT22;10102;50.828;4.416;2023-06-14T03:47:37;21.00;97.10
19880;DHT22;10102;50.828;4.416;2023-06-14T03:50:03;20.80;96.90
19880;DHT22;10102;50.828;4.416;2023-06-14T03:52:30;21.10;97.20
19880;DHT22;10102;50.828;4.416;2023-06-14T03:55:19;20.70;88.60
19880;DHT22;10102;50.828;4.416;2023-06-14T03:58:02;20.70;97.30
19880;DHT22;10102;50.828;4.416;2023-06-14T04:00:50;20.80;97.40
19880;DHT22;10102;50.828;4.416;2023-06-14T04:03:15;20.60;97.40
19880;DHT22;10102;50.828;4.416;2023-06-14T04:06:00;20.60;98.40
19880;DHT22;10102;50.828;4.416;2023-06-14T04:08:25;20.50;97.50
19880;DHT22;10102;50.828;4.416;2023-06-14T04:10:51;20.70;97.60
19880;DHT22;10102;50.828;4.416;2023-06-14T04:13:17;20.60;97.70
19880;DHT22;10102;50.828;4.416;2023-06-14T04:18:11;20.70;97.80
19880;DHT22;10102;50.828;4.416;2023-06-14T04:20:37;20.80;97.80
19880;DHT22;10102;50.828;4.416;2023-06-14T04:23:16;20.80;98.00
19880;DHT22;10102;50.828;4.416;2023-06-14T04:25:44;20.90;97.90
19880;DHT22;10102;50.828;4.416;2023-06-14T04:28:14;20.90;97.70
19880;DHT22;10102;50.828;4.416;2023-06-14T04:30:44;20.90;97.80
19880;DHT22;10102;50.828;4.416;2023-06-14T04:33:12;21.10;97.70
19880;DHT22;10102;50.828;4.416;2023-06-14T04:35:39;20.80;97.40
19880;DHT22;10102;50.828;4.416;2023-06-14T04:38:06;21.10;93.40
19880;DHT22;10102;50.828;4.416;2023-06-14T04:40:35;21.00;90.10
19880;DHT22;10102;50.828;4.416;2023-06-14T04:45:33;21.00;98.10
19880;DHT22;10102;50.828;4.416;2023-06-14T04:47:59;21.00;98.00
19880;DHT22;10102;50.828;4.416;2023-06-14T04:50:25;20.90;94.60
19880;DHT22;10102;50.828;4.416;2023-06-14T04:52:52;20.90;98.30
19880;DHT22;10102;50.828;4.416;2023-06-14T04:55:18;21.10;98.40
19880;DHT22;10102;50.828;4.416;2023-06-14T04:57:45;21.10;98.20
19880;DHT22;10102;50.828;4.416;2023-06-14T05:00:11;21.20;95.80
19880;DHT22;10102;50.828;4.416;2023-06-14T05:05:04;21.10;98.90
19880;DHT22;10102;50.828;4.416;2023-06-14T05:07:33;21.30;97.30
19880;DHT22;10102;50.828;4.416;2023-06-14T05:09:59;21.20;97.20
19880;DHT22;10102;50.828;4.416;2023-06-14T05:12:25;21.20;97.30
19880;DHT22;10102;50.828;4.416;2023-06-14T05:14:51;21.10;97.50
19880;DHT22;10102;50.828;4.416;2023-06-14T05:17:16;21.10;89.80
19880;DHT22;10102;50.828;4.416;2023-06-14T05:19:42;21.10;97.70
19880;DHT22;10102;50.828;4.416;2023-06-14T05:22:08;21.20;97.70
19880;DHT22;10102;50.828;4.416;2023-06-14T05:24:34;21.30;97.50
19880;DHT22;10102;50.828;4.416;2023-06-14T05:27:00;21.30;97.40
19880;DHT22;10102;50.828;4.416;2023-06-14T05:34:19;21.80;89.50
19880;DHT22;10102;50.828;4.416;2023-06-14T05:36:44;21.80;91.30
19880;DHT22;10102;50.828;4.416;2023-06-14T05:39:10;22.00;92.90
19880;DHT22;10102;50.828;4.416;2023-06-14T05:41:36;22.20;96.90
19880;DHT22;10102;50.828;4.416;2023-06-14T05:44:01;22.20;96.70
19880;DHT22;10102;50.828;4.416;2023-06-14T05:48:54;22.60;96.50
19880;DHT22;10102;50.828;4.416;2023-06-14T05:51:21;22.70;96.20
19880;DHT22;10102;50.828;4.416;2023-06-14T05:53:48;22.70;96.00
19880;DHT22;10102;50.828;4.416;2023-06-14T05:56:15;22.80;95.40
19880;DHT22;10102;50.828;4.416;2023-06-14T05:58:43;23.00;96.80
19880;DHT22;10102;50.828;4.416;2023-06-14T06:01:09;23.30;88.60
19880;DHT22;10102;50.828;4.416;2023-06-14T06:03:34;23.40;95.80
19880;DHT22;10102;50.828;4.416;2023-06-14T06:06:00;23.30;95.20
19880;DHT22;10102;50.828;4.416;2023-06-14T06:08:27;23.50;89.70
19880;DHT22;10102;50.828;4.416;2023-06-14T06:13:19;23.70;95.50
19880;DHT22;10102;50.828;4.416;2023-06-14T06:15:45;23.70;95.00
19880;DHT22;10102;50.828;4.416;2023-06-14T06:18:11;23.90;94.70
19880;DHT22;10102;50.828;4.416;2023-06-14T06:23:03;24.20;94.30
19880;DHT22;10102;50.828;4.416;2023-06-14T06:27:57;24.20;93.20
19880;DHT22;10102;50.828;4.416;2023-06-14T06:30:23;24.40;93.30
19880;DHT22;10102;50.828;4.416;2023-06-14T06:35:16;24.30;93.20
19880;DHT22;10102;50.828;4.416;2023-06-14T06:37:42;24.40;82.40
19880;DHT22;10102;50.828;4.416;2023-06-14T06:42:34;24.60;93.10
19880;DHT22;10102;50.828;4.416;2023-06-14T06:45:00;24.90;83.90
19880;DHT22;10102;50.828;4.416;2023-06-14T06:47:26;24.80;79.20
19880;DHT22;10102;50.828;4.416;2023-06-14T06:49:51;25.20;92.10
19880;DHT22;10102;50.828;4.416;2023-06-14T06:52:17;25.20;91.40
19880;DHT22;10102;50.828;4.416;2023-06-14T06:54:43;25.60;91.10
19880;DHT22;10102;50.828;4.416;2023-06-14T06:57:09;25.20;90.80
19880;DHT22;10102;50.828;4.416;2023-06-14T06:59:36;25.30;77.00
19880;DHT22;10102;50.828;4.416;2023-06-14T07:02:02;25.50;90.80
19880;DHT22;10102;50.828;4.416;2023-06-14T07:04:27;25.70;90.80
19880;DHT22;10102;50.828;4.416;2023-06-14T07:06:53;25.70;90.50
19880;DHT22;10102;50.828;4.416;2023-06-14T07:09:19;25.90;90.30
19880;DHT22;10102;50.828;4.416;2023-06-14T07:11:46;25.60;90.00
19880;DHT22;10102;50.828;4.416;2023-06-14T07:14:14;25.80;90.70
19880;DHT22;10102;50.828;4.416;2023-06-14T07:16:40;25.70;89.70
19880;DHT22;10102;50.828;4.416;2023-06-14T07:19:06;25.90;89.50
19880;DHT22;10102;50.828;4.416;2023-06-14T07:21:32;26.00;90.20
19880;DHT22;10102;50.828;4.416;2023-06-14T07:23:58;26.00;75.30
19880;DHT22;10102;50.828;4.416;2023-06-14T07:26:24;26.00;90.00
19880;DHT22;10102;50.828;4.416;2023-06-14T07:28:50;26.10;75.30
19880;DHT22;10102;50.828;4.416;2023-06-14T07:31:16;26.30;76.50
19880;DHT22;10102;50.828;4.416;2023-06-14T07:33:42;26.40;76.30
19880;DHT22;10102;50.828;4.416;2023-06-14T07:36:08;26.50;75.70
19880;DHT22;10102;50.828;4.416;2023-06-14T07:38:34;26.50;89.20
19880;DHT22;10102;50.828;4.416;2023-06-14T07:41:00;26.60;88.40
19880;DHT22;10102;50.828;4.416;2023-06-14T07:43:26;26.60;73.10
19880;DHT22;10102;50.828;4.416;2023-06-14T07:45:52;26.80;74.00
19880;DHT22;10102;50.828;4.416;2023-06-14T07:48:18;26.80;86.30
19880;DHT22;10102;50.828;4.416;2023-06-14T07:50:43;26.80;87.30
19880;DHT22;10102;50.828;4.416;2023-06-14T07:53:09;27.10;88.70
19880;DHT22;10102;50.828;4.416;2023-06-14T07:55:35;27.00;72.70
19880;DHT22;10102;50.828;4.416;2023-06-14T07:58:06;27.00;72.80
19880;DHT22;10102;50.828;4.416;2023-06-14T08:00:32;27.00;87.70
19880;DHT22;10102;50.828;4.416;2023-06-14T08:02:58;27.00;72.20
19880;DHT22;10102;50.828;4.416;2023-06-14T08:05:28;27.10;73.10
19880;DHT22;10102;50.828;4.416;2023-06-14T08:07:54;27.00;89.20
19880;DHT22;10102;50.828;4.416;2023-06-14T08:10:21;27.00;89.70
19880;DHT22;10102;50.828;4.416;2023-06-14T08:12:47;27.10;73.30
19880;DHT22;10102;50.828;4.416;2023-06-14T08:15:13;27.20;75.50
19880;DHT22;10102;50.828;4.416;2023-06-14T08:17:39;27.30;88.40
19880;DHT22;10102;50.828;4.416;2023-06-14T08:20:06;27.20;88.80
19880;DHT22;10102;50.828;4.416;2023-06-14T08:22:32;27.10;89.50
19880;DHT22;10102;50.828;4.416;2023-06-14T08:25:01;27.40;82.50
19880;DHT22;10102;50.828;4.416;2023-06-14T08:27:27;27.40;89.00
19880;DHT22;10102;50.828;4.416;2023-06-14T08:29:53;27.40;88.50
19880;DHT22;10102;50.828;4.416;2023-06-14T08:32:19;27.40;72.70
19880;DHT22;10102;50.828;4.416;2023-06-14T08:34:45;27.50;72.80
19880;DHT22;10102;50.828;4.416;2023-06-14T08:37:10;27.40;73.40
19880;DHT22;10102;50.828;4.416;2023-06-14T08:39:37;27.40;73.70
19880;DHT22;10102;50.828;4.416;2023-06-14T08:42:03;27.10;73.60
19880;DHT22;10102;50.828;4.416;2023-06-14T08:44:30;27.20;74.70
19880;DHT22;10102;50.828;4.416;2023-06-14T08:46:56;27.10;90.10
19880;DHT22;10102;50.828;4.416;2023-06-14T08:49:25;27.20;90.40
19880;DHT22;10102;50.828;4.416;2023-06-14T08:51:59;27.20;75.40
19880;DHT22;10102;50.828;4.416;2023-06-14T08:54:28;27.20;89.70
19880;DHT22;10102;50.828;4.416;2023-06-14T08:56:59;27.00;90.40
19880;DHT22;10102;50.828;4.416;2023-06-14T08:59:28;27.30;75.70
19880;DHT22;10102;50.828;4.416;2023-06-14T09:01:54;27.20;88.50
19880;DHT22;10102;50.828;4.416;2023-06-14T09:04:26;27.30;74.30
19880;DHT22;10102;50.828;4.416;2023-06-14T09:06:55;27.20;75.20
19880;DHT22;10102;50.828;4.416;2023-06-14T09:09:21;27.20;74.20
19880;DHT22;10102;50.828;4.416;2023-06-14T09:11:50;27.10;90.00
19880;DHT22;10102;50.828;4.416;2023-06-14T09:14:17;27.20;90.10
19880;DHT22;10102;50.828;4.416;2023-06-14T09:16:43;27.30;89.70
19880;DHT22;10102;50.828;4.416;2023-06-14T09:19:08;27.10;90.10
19880;DHT22;10102;50.828;4.416;2023-06-14T09:21:40;27.40;73.60
19880;DHT22;10102;50.828;4.416;2023-06-14T09:24:06;27.50;90.20
19880;DHT22;10102;50.828;4.416;2023-06-14T09:26:39;27.40;74.00
19880;DHT22;10102;50.828;4.416;2023-06-14T09:29:06;27.50;74.10
19880;DHT22;10102;50.828;4.416;2023-06-14T09:31:32;27.60;73.90
19880;DHT22;10102;50.828;4.416;2023-06-14T09:33:58;27.80;73.50
19880;DHT22;10102;50.828;4.416;2023-06-14T09:36:27;27.70;72.20
19880;DHT22;10102;50.828;4.416;2023-06-14T09:38:56;27.80;73.60
19880;DHT22;10102;50.828;4.416;2023-06-14T09:41:35;27.80;74.30
19880;DHT22;10102;50.828;4.416;2023-06-14T09:44:02;27.80;70.30
19880;DHT22;10102;50.828;4.416;2023-06-14T09:46:29;27.70;84.60
19880;DHT22;10102;50.828;4.416;2023-06-14T09:48:58;27.60;85.00
19880;DHT22;10102;50.828;4.416;2023-06-14T09:51:25;27.60;69.50
19880;DHT22;10102;50.828;4.416;2023-06-14T09:53:52;27.50;85.70
19880;DHT22;10102;50.828;4.416;2023-06-14T09:56:23;27.70;85.60
19880;DHT22;10102;50.828;4.416;2023-06-14T09:58:55;27.60;70.10
19880;DHT22;10102;50.828;4.416;2023-06-14T10:01:22;27.70;70.80
19880;DHT22;10102;50.828;4.416;2023-06-14T10:03:50;27.80;70.20
19880;DHT22;10102;50.828;4.416;2023-06-14T10:06:21;27.90;69.40
19880;DHT22;10102;50.828;4.416;2023-06-14T10:08:52;28.10;84.40
19880;DHT22;10102;50.828;4.416;2023-06-14T10:11:20;28.20;85.50
19880;DHT22;10102;50.828;4.416;2023-06-14T10:13:46;28.10;69.60
19880;DHT22;10102;50.828;4.416;2023-06-14T10:19:21;28.60;70.40
19880;DHT22;10102;50.828;4.416;2023-06-14T10:22:02;28.20;85.20
19880;DHT22;10102;50.828;4.416;2023-06-14T10:24:38;28.20;85.00
19880;DHT22;10102;50.828;4.416;2023-06-14T10:27:06;28.40;84.20
19880;DHT22;10102;50.828;4.416;2023-06-14T10:32:27;28.80;83.80
19880;DHT22;10102;50.828;4.416;2023-06-14T10:37:23;28.90;81.00
19880;DHT22;10102;50.828;4.416;2023-06-14T10:39:52;29.00;80.90
19880;DHT22;10102;50.828;4.416;2023-06-14T10:42:19;28.90;64.90
19880;DHT22;10102;50.828;4.416;2023-06-14T10:44:54;29.00;63.90
19880;DHT22;10102;50.828;4.416;2023-06-14T10:47:30;29.10;64.20
19880;DHT22;10102;50.828;4.416;2023-06-14T10:50:06;29.10;63.60
19880;DHT22;10102;50.828;4.416;2023-06-14T10:52:39;29.10;63.50
19880;DHT22;10102;50.828;4.416;2023-06-14T10:57:37;29.30;79.30
19880;DHT22;10102;50.828;4.416;2023-06-14T11:00:05;29.30;62.20
19880;DHT22;10102;50.828;4.416;2023-06-14T11:05:26;29.30;62.10
19880;DHT22;10102;50.828;4.416;2023-06-14T11:10:59;29.50;78.20
19880;DHT22;10102;50.828;4.416;2023-06-14T11:13:26;29.60;62.60
19880;DHT22;10102;50.828;4.416;2023-06-14T11:15:52;29.80;61.30
19880;DHT22;10102;50.828;4.416;2023-06-14T11:18:23;29.70;59.50
19880;DHT22;10102;50.828;4.416;2023-06-14T11:20:53;29.80;61.00
19880;DHT22;10102;50.828;4.416;2023-06-14T11:23:19;29.90;59.50
19880;DHT22;10102;50.828;4.416;2023-06-14T11:25:52;30.00;60.40
19880;DHT22;10102;50.828;4.416;2023-06-14T11:28:18;29.70;59.90
19880;DHT22;10102;50.828;4.416;2023-06-14T11:30:45;30.20;59.50
19880;DHT22;10102;50.828;4.416;2023-06-14T11:33:14;30.40;59.20
19880;DHT22;10102;50.828;4.416;2023-06-14T11:35:42;30.70;58.00
19880;DHT22;10102;50.828;4.416;2023-06-14T11:38:10;31.40;57.70
19880;DHT22;10102;50.828;4.416;2023-06-14T11:40:38;32.30;57.70
19880;DHT22;10102;50.828;4.416;2023-06-14T11:43:03;33.70;55.20
19880;DHT22;10102;50.828;4.416;2023-06-14T11:45:30;35.70;53.00
19880;DHT22;10102;50.828;4.416;2023-06-14T11:47:57;37.40;50.30
19880;DHT22;10102;50.828;4.416;2023-06-14T11:50:23;39.20;48.10
19880;DHT22;10102;50.828;4.416;2023-06-14T11:52:59;41.20;45.90
19880;DHT22;10102;50.828;4.416;2023-06-14T11:55:32;43.30;43.20
19880;DHT22;10102;50.828;4.416;2023-06-14T11:57:58;44.40;41.20
19880;DHT22;10102;50.828;4.416;2023-06-14T12:00:26;45.50;40.40
19880;DHT22;10102;50.828;4.416;2023-06-14T12:02:55;45.70;39.20
19880;DHT22;10102;50.828;4.416;2023-06-14T12:05:22;46.60;38.80
19880;DHT22;10102;50.828;4.416;2023-06-14T12:07:49;48.10;37.70
19880;DHT22;10102;50.828;4.416;2023-06-14T12:10:16;48.50;36.70
19880;DHT22;10102;50.828;4.416;2023-06-14T12:12:42;48.80;36.90
19880;DHT22;10102;50.828;4.416;2023-06-14T12:15:10;49.50;36.00
19880;DHT22;10102;50.828;4.416;2023-06-14T12:17:39;50.20;35.90
19880;DHT22;10102;50.828;4.416;2023-06-14T12:20:14;50.20;34.80
19880;DHT22;10102;50.828;4.416;2023-06-14T12:22:57;51.70;34.50
19880;DHT22;10102;50.828;4.416;2023-06-14T12:25:31;51.20;33.90
19880;DHT22;10102;50.828;4.416;2023-06-14T12:27:58;51.40;33.30
19880;DHT22;10102;50.828;4.416;2023-06-14T12:30:24;52.20;33.30
19880;DHT22;10102;50.828;4.416;2023-06-14T12:32:49;51.70;32.50
19880;DHT22;10102;50.828;4.416;2023-06-14T12:35:17;51.50;32.70
19880;DHT22;10102;50.828;4.416;2023-06-14T12:37:45;51.10;32.90
19880;DHT22;10102;50.828;4.416;2023-06-14T12:40:11;52.00;33.10
19880;DHT22;10102;50.828;4.416;2023-06-14T12:42:37;52.50;32.10
19880;DHT22;10102;50.828;4.416;2023-06-14T12:45:03;53.10;31.90
19880;DHT22;10102;50.828;4.416;2023-06-14T12:47:29;53.90;31.40
19880;DHT22;10102;50.828;4.416;2023-06-14T12:49:55;53.90;32.00
19880;DHT22;10102;50.828;4.416;2023-06-14T12:52:21;53.70;30.60
19880;DHT22;10102;50.828;4.416;2023-06-14T12:54:46;53.30;30.60
19880;DHT22;10102;50.828;4.416;2023-06-14T12:57:12;52.70;30.50
19880;DHT22;10102;50.828;4.416;2023-06-14T12:59:37;53.20;30.80
19880;DHT22;10102;50.828;4.416;2023-06-14T13:02:14;53.50;30.20
19880;DHT22;10102;50.828;4.416;2023-06-14T13:04:40;54.00;30.50
19880;DHT22;10102;50.828;4.416;2023-06-14T13:07:06;54.50;30.10
19880;DHT22;10102;50.828;4.416;2023-06-14T13:09:31;54.50;30.10
19880;DHT22;10102;50.828;4.416;2023-06-14T13:11:57;54.50;30.00
19880;DHT22;10102;50.828;4.416;2023-06-14T13:14:23;55.50;29.70
19880;DHT22;10102;50.828;4.416;2023-06-14T13:16:48;56.00;29.30
19880;DHT22;10102;50.828;4.416;2023-06-14T13:19:14;55.90;29.90
19880;DHT22;10102;50.828;4.416;2023-06-14T13:21:40;56.30;29.30
19880;DHT22;10102;50.828;4.416;2023-06-14T13:24:06;55.90;29.10
19880;DHT22;10102;50.828;4.416;2023-06-14T13:26:33;55.60;29.50
19880;DHT22;10102;50.828;4.416;2023-06-14T13:28:58;55.50;29.40
19880;DHT22;10102;50.828;4.416;2023-06-14T13:31:24;55.60;29.10
19880;DHT22;10102;50.828;4.416;2023-06-14T13:33:50;55.10;29.10
19880;DHT22;10102;50.828;4.416;2023-06-14T13:36:17;53.80;29.60
19880;DHT22;10102;50.828;4.416;2023-06-14T13:38:43;54.10;29.70
19880;DHT22;10102;50.828;4.416;2023-06-14T13:41:09;54.50;29.40
19880;DHT22;10102;50.828;4.416;2023-06-14T13:43:35;55.40;29.20
19880;DHT22;10102;50.828;4.416;2023-06-14T13:46:01;55.40;29.10
19880;DHT22;10102;50.828;4.416;2023-06-14T13:48:27;54.50;29.00
19880;DHT22;10102;50.828;4.416;2023-06-14T13:50:52;54.00;29.20
19880;DHT22;10102;50.828;4.416;2023-06-14T13:53:18;54.10;29.00
19880;DHT22;10102;50.828;4.416;2023-06-14T13:55:43;54.80;29.10
19880;DHT22;10102;50.828;4.416;2023-06-14T13:58:09;55.20;28.60
19880;DHT22;10102;50.828;4.416;2023-06-14T14:00:35;55.70;28.30
19880;DHT22;10102;50.828;4.416;2023-06-14T14:03:06;55.80;28.30
19880;DHT22;10102;50.828;4.416;2023-06-14T14:05:32;56.20;27.90
19880;DHT22;10102;50.828;4.416;2023-06-14T14:07:58;56.10;28.00
19880;DHT22;10102;50.828;4.416;2023-06-14T14:10:24;56.10;28.10
19880;DHT22;10102;50.828;4.416;2023-06-14T14:12:50;56.60;28.10
19880;DHT22;10102;50.828;4.416;2023-06-14T14:15:17;56.40;28.30
19880;DHT22;10102;50.828;4.416;2023-06-14T14:17:43;57.00;28.10
19880;DHT22;10102;50.828;4.416;2023-06-14T14:20:10;57.10;27.60
19880;DHT22;10102;50.828;4.416;2023-06-14T14:22:38;57.30;27.60
19880;DHT22;10102;50.828;4.416;2023-06-14T14:25:04;57.40;27.40
19880;DHT22;10102;50.828;4.416;2023-06-14T14:27:30;57.90;27.40
19880;DHT22;10102;50.828;4.416;2023-06-14T14:29:56;57.60;27.20
19880;DHT22;10102;50.828;4.416;2023-06-14T14:32:21;56.20;27.40
19880;DHT22;10102;50.828;4.416;2023-06-14T14:34:47;56.50;27.40
19880;DHT22;10102;50.828;4.416;2023-06-14T14:37:13;56.50;27.60
19880;DHT22;10102;50.828;4.416;2023-06-14T14:39:40;55.90;27.70
19880;DHT22;10102;50.828;4.416;2023-06-14T14:42:06;55.90;27.70
19880;DHT22;10102;50.828;4.416;2023-06-14T14:44:33;55.40;28.10
19880;DHT22;10102;50.828;4.416;2023-06-14T14:46:59;56.00;28.00
19880;DHT22;10102;50.828;4.416;2023-06-14T14:49:24;56.30;27.70
19880;DHT22;10102;50.828;4.416;2023-06-14T14:51:50;57.10;27.60
19880;DHT22;10102;50.828;4.416;2023-06-14T14:54:15;56.40;27.40
19880;DHT22;10102;50.828;4.416;2023-06-14T14:56:41;56.60;27.70
19880;DHT22;10102;50.828;4.416;2023-06-14T14:59:07;56.00;27.60
19880;DHT22;10102;50.828;4.416;2023-06-14T15:01:32;56.10;27.50
19880;DHT22;10102;50.828;4.416;2023-06-14T15:03:58;57.10;27.80
19880;DHT22;10102;50.828;4.416;2023-06-14T15:06:24;55.80;27.50
19880;DHT22;10102;50.828;4.416;2023-06-14T15:08:49;55.90;27.40
19880;DHT22;10102;50.828;4.416;2023-06-14T15:11:16;56.20;27.70
19880;DHT22;10102;50.828;4.416;2023-06-14T15:13:41;56.20;27.40
19880;DHT22;10102;50.828;4.416;2023-06-14T15:16:07;56.50;27.20
19880;DHT22;10102;50.828;4.416;2023-06-14T15:18:34;55.30;27.70
19880;DHT22;10102;50.828;4.416;2023-06-14T15:20:59;55.00;27.90
19880;DHT22;10102;50.828;4.416;2023-06-14T15:23:25;54.60;28.30
19880;DHT22;10102;50.828;4.416;2023-06-14T15:25:51;53.60;28.30
19880;DHT22;10102;50.828;4.416;2023-06-14T15:28:17;53.00;28.50
19880;DHT22;10102;50.828;4.416;2023-06-14T15:30:43;52.90;28.50
19880;DHT22;10102;50.828;4.416;2023-06-14T15:33:08;52.90;28.70
19880;DHT22;10102;50.828;4.416;2023-06-14T15:35:34;53.40;28.60
19880;DHT22;10102;50.828;4.416;2023-06-14T15:38:00;53.00;29.00
19880;DHT22;10102;50.828;4.416;2023-06-14T15:40:26;53.40;29.00
19880;DHT22;10102;50.828;4.416;2023-06-14T15:42:53;53.50;28.90
19880;DHT22;10102;50.828;4.416;2023-06-14T15:45:19;52.60;28.80
19880;DHT22;10102;50.828;4.416;2023-06-14T15:47:45;52.60;29.10
19880;DHT22;10102;50.828;4.416;2023-06-14T15:50:11;52.60;28.70
19880;DHT22;10102;50.828;4.416;2023-06-14T15:52:37;53.00;29.00
19880;DHT22;10102;50.828;4.416;2023-06-14T15:55:03;52.70;28.80
19880;DHT22;10102;50.828;4.416;2023-06-14T15:57:30;52.10;29.00
19880;DHT22;10102;50.828;4.416;2023-06-14T15:59:55;52.20;29.00
19880;DHT22;10102;50.828;4.416;2023-06-14T16:02:21;52.00;29.20
19880;DHT22;10102;50.828;4.416;2023-06-14T16:04:46;52.00;29.20
19880;DHT22;10102;50.828;4.416;2023-06-14T16:07:13;52.30;29.20
19880;DHT22;10102;50.828;4.416;2023-06-14T16:09:39;52.10;29.40
19880;DHT22;10102;50.828;4.416;2023-06-14T16:12:06;51.80;29.40
19880;DHT22;10102;50.828;4.416;2023-06-14T16:14:32;50.60;29.80
19880;DHT22;10102;50.828;4.416;2023-06-14T16:16:58;49.60;30.00
19880;DHT22;10102;50.828;4.416;2023-06-14T16:19:24;49.20;30.30
19880;DHT22;10102;50.828;4.416;2023-06-14T16:21:50;49.20;30.50
19880;DHT22;10102;50.828;4.416;2023-06-14T16:24:16;48.70;30.00
19880;DHT22;10102;50.828;4.416;2023-06-14T16:26:42;48.00;30.60
19880;DHT22;10102;50.828;4.416;2023-06-14T16:29:08;47.20;31.60
19880;DHT22;10102;50.828;4.416;2023-06-14T16:31:33;46.00;32.90